sensor_id;sensor_type;location;lat;lon;timestamp;pressure;altitude;pressure_sealevel;temperature;humidity
78383;BME280;67668;52.294;4.692;2024-01-25T00:01:45;102865.00;;;8.68;83.30
78383;BME280;67668;52.294;4.692;2024-01-25T00:04:10;102869.47;;;8.68;83.49
78383;BME280;67668;52.294;4.692;2024-01-25T00:06:35;102869.47;;;8.68;82.86
78383;BME280;67668;52.294;4.692;2024-01-25T00:09:00;102860.75;;;8.66;83.39
78383;BME280;67668;52.294;4.692;2024-01-25T00:11:26;102863.38;;;8.66;83.12
78383;BME280;67668;52.294;4.692;2024-01-25T00:13:51;102858.28;;;8.63;83.26
78383;BME280;67668;52.294;4.692;2024-01-25T00:16:16;102868.81;;;8.63;83.58
78383;BME280;67668;52.294;4.692;2024-01-25T00:18:42;102869.63;;;8.65;83.46
78383;BME280;67668;52.294;4.692;2024-01-25T00:21:07;102860.06;;;8.62;83.56
78383;BME280;67668;52.294;4.692;2024-01-25T00:23:32;102861.94;;;8.60;83.93
78383;BME280;67668;52.294;4.692;2024-01-25T00:25:58;102867.97;;;8.62;83.99
78383;BME280;67668;52.294;4.692;2024-01-25T00:28:24;102874.28;;;8.60;84.13
78383;BME280;67668;52.294;4.692;2024-01-25T00:30:50;102866.34;;;8.60;83.64
78383;BME280;67668;52.294;4.692;2024-01-25T00:33:15;102869.16;;;8.57;83.52
78383;BME280;67668;52.294;4.692;2024-01-25T00:35:40;102881.50;;;8.56;83.50
78383;BME280;67668;52.294;4.692;2024-01-25T00:38:06;102871.03;;;8.55;83.11
78383;BME280;67668;52.294;4.692;2024-01-25T00:40:31;102865.88;;;8.52;83.33
78383;BME280;67668;52.294;4.692;2024-01-25T00:42:57;102872.00;;;8.52;84.10
78383;BME280;67668;52.294;4.692;2024-01-25T00:45:23;102865.97;;;8.50;84.07
78383;BME280;67668;52.294;4.692;2024-01-25T00:47:49;102858.91;;;8.51;84.28
78383;BME280;67668;52.294;4.692;2024-01-25T00:50:17;102858.13;;;8.49;84.21
78383;BME280;67668;52.294;4.692;2024-01-25T00:52:44;102876.53;;;8.50;84.17
78383;BME280;67668;52.294;4.692;2024-01-25T00:55:10;102884.44;;;8.50;84.15
78383;BME280;67668;52.294;4.692;2024-01-25T00:57:35;102884.44;;;8.50;84.19
78383;BME280;67668;52.294;4.692;2024-01-25T01:00:01;102887.25;;;8.47;84.31
78383;BME280;67668;52.294;4.692;2024-01-25T01:02:29;102881.97;;;8.47;84.10
78383;BME280;67668;52.294;4.692;2024-01-25T01:04:59;102887.25;;;8.47;84.42
78383;BME280;67668;52.294;4.692;2024-01-25T01:07:25;102897.81;;;8.47;84.64
78383;BME280;67668;52.294;4.692;2024-01-25T01:09:50;102896.94;;;8.47;84.30
78383;BME280;67668;52.294;4.692;2024-01-25T01:12:15;102896.09;;;8.46;85.11
78383;BME280;67668;52.294;4.692;2024-01-25T01:14:42;102899.66;;;8.45;84.84
78383;BME280;67668;52.294;4.692;2024-01-25T01:17:07;102902.28;;;8.45;85.11
78383;BME280;67668;52.294;4.692;2024-01-25T01:19:32;102903.25;;;8.44;85.03
78383;BME280;67668;52.294;4.692;2024-01-25T01:21:57;102905.94;;;8.43;84.27
78383;BME280;67668;52.294;4.692;2024-01-25T01:24:23;102919.13;;;8.43;84.30
78383;BME280;67668;52.294;4.692;2024-01-25T01:26:48;102918.38;;;8.41;84.35
78383;BME280;67668;52.294;4.692;2024-01-25T01:29:15;102922.84;;;8.39;84.50
78383;BME280;67668;52.294;4.692;2024-01-25T01:31:40;102929.06;;;8.38;85.01
78383;BME280;67668;52.294;4.692;2024-01-25T01:34:06;102929.94;;;8.38;84.96
78383;BME280;67668;52.294;4.692;2024-01-25T01:36:31;102917.66;;;8.37;84.73
78383;BME280;67668;52.294;4.692;2024-01-25T01:38:57;102917.81;;;8.34;84.81
78383;BME280;67668;52.294;4.692;2024-01-25T01:41:22;102926.50;;;8.36;85.07
78383;BME280;67668;52.294;4.692;2024-01-25T01:43:47;102918.69;;;8.35;84.25
78383;BME280;67668;52.294;4.692;2024-01-25T01:46:31;102920.47;;;8.34;84.39
78383;BME280;67668;52.294;4.692;2024-01-25T01:48:57;102915.19;;;8.34;84.89
78383;BME280;67668;52.294;4.692;2024-01-25T01:51:22;102931.22;;;8.29;84.21
78383;BME280;67668;52.294;4.692;2024-01-25T01:53:47;102934.81;;;8.28;83.95
78383;BME280;67668;52.294;4.692;2024-01-25T01:56:13;102929.56;;;8.27;84.01
78383;BME280;67668;52.294;4.692;2024-01-25T01:58:39;102925.22;;;8.26;83.91
78383;BME280;67668;52.294;4.692;2024-01-25T02:01:05;102930.50;;;8.26;84.35
78383;BME280;67668;52.294;4.692;2024-01-25T02:03:30;102922.66;;;8.24;84.02
78383;BME280;67668;52.294;4.692;2024-01-25T02:05:56;102928.91;;;8.22;84.60
78383;BME280;67668;52.294;4.692;2024-01-25T02:08:27;102940.50;;;8.19;83.98
78383;BME280;67668;52.294;4.692;2024-01-25T02:10:52;102936.22;;;8.17;83.66
78383;BME280;67668;52.294;4.692;2024-01-25T02:13:18;102931.81;;;8.17;83.98
78383;BME280;67668;52.294;4.692;2024-01-25T02:15:43;102930.94;;;8.17;85.11
78383;BME280;67668;52.294;4.692;2024-01-25T02:18:08;102932.81;;;8.15;84.77
78383;BME280;67668;52.294;4.692;2024-01-25T02:20:34;102929.22;;;8.16;85.05
78383;BME280;67668;52.294;4.692;2024-01-25T02:22:59;102928.47;;;8.14;85.41
78383;BME280;67668;52.294;4.692;2024-01-25T02:25:24;102928.31;;;8.17;85.68
78383;BME280;67668;52.294;4.692;2024-01-25T02:27:50;102937.94;;;8.18;85.19
78383;BME280;67668;52.294;4.692;2024-01-25T02:30:15;102927.44;;;8.16;85.13
78383;BME280;67668;52.294;4.692;2024-01-25T02:32:42;102934.50;;;8.16;85.48
78383;BME280;67668;52.294;4.692;2024-01-25T02:35:07;102937.13;;;8.16;84.72
78383;BME280;67668;52.294;4.692;2024-01-25T02:37:32;102939.78;;;8.16;85.20
78383;BME280;67668;52.294;4.692;2024-01-25T02:39:58;102947.69;;;8.16;85.77
78383;BME280;67668;52.294;4.692;2024-01-25T02:42:23;102942.41;;;8.16;85.75
78383;BME280;67668;52.294;4.692;2024-01-25T02:44:48;102946.06;;;8.13;85.94
78383;BME280;67668;52.294;4.692;2024-01-25T02:47:14;102951.44;;;8.12;85.28
78383;BME280;67668;52.294;4.692;2024-01-25T02:49:40;102947.06;;;8.11;85.25
78383;BME280;67668;52.294;4.692;2024-01-25T02:52:05;102956.75;;;8.10;85.02
78383;BME280;67668;52.294;4.692;2024-01-25T02:54:34;102947.06;;;8.11;85.74
78383;BME280;67668;52.294;4.692;2024-01-25T02:57:01;102951.50;;;8.10;86.24
78383;BME280;67668;52.294;4.692;2024-01-25T02:59:26;102944.50;;;8.09;86.11
78383;BME280;67668;52.294;4.692;2024-01-25T03:01:53;102950.63;;;8.10;85.85
78383;BME280;67668;52.294;4.692;2024-01-25T03:04:19;102955.03;;;8.09;85.77
78383;BME280;67668;52.294;4.692;2024-01-25T03:06:44;102944.50;;;8.09;85.41
78383;BME280;67668;52.294;4.692;2024-01-25T03:09:09;102950.63;;;8.10;85.55
78383;BME280;67668;52.294;4.692;2024-01-25T03:11:35;102956.81;;;8.09;85.81
78383;BME280;67668;52.294;4.692;2024-01-25T03:14:00;102958.69;;;8.07;86.05
78383;BME280;67668;52.294;4.692;2024-01-25T03:16:25;102959.63;;;8.06;85.57
78383;BME280;67668;52.294;4.692;2024-01-25T03:18:51;102957.97;;;8.03;85.75
78383;BME280;67668;52.294;4.692;2024-01-25T03:21:16;102957.97;;;8.03;86.09
78383;BME280;67668;52.294;4.692;2024-01-25T03:23:41;102961.53;;;8.02;85.82
78383;BME280;67668;52.294;4.692;2024-01-25T03:26:06;102968.63;;;8.02;85.89
78383;BME280;67668;52.294;4.692;2024-01-25T03:28:34;102962.53;;;8.00;85.73
78383;BME280;67668;52.294;4.692;2024-01-25T03:31:00;102964.31;;;7.99;86.26
78383;BME280;67668;52.294;4.692;2024-01-25T03:33:25;102966.09;;;7.99;86.29
78383;BME280;67668;52.294;4.692;2024-01-25T03:35:51;102961.78;;;7.98;85.98
78383;BME280;67668;52.294;4.692;2024-01-25T03:38:16;102947.78;;;7.96;86.29
78383;BME280;67668;52.294;4.692;2024-01-25T03:40:42;102948.81;;;7.93;85.91
78383;BME280;67668;52.294;4.692;2024-01-25T03:43:07;102952.31;;;7.94;86.02
78383;BME280;67668;52.294;4.692;2024-01-25T03:45:32;102954.22;;;7.90;85.92
78383;BME280;67668;52.294;4.692;2024-01-25T03:47:58;102956.84;;;7.90;85.94
78383;BME280;67668;52.294;4.692;2024-01-25T03:50:23;102954.38;;;7.87;85.55
78383;BME280;67668;52.294;4.692;2024-01-25T03:52:49;102958.78;;;7.87;85.55
78383;BME280;67668;52.294;4.692;2024-01-25T03:55:14;102962.34;;;7.86;85.28
78383;BME280;67668;52.294;4.692;2024-01-25T03:57:39;102964.19;;;7.84;85.71
78383;BME280;67668;52.294;4.692;2024-01-25T04:00:06;102954.66;;;7.81;85.26
78383;BME280;67668;52.294;4.692;2024-01-25T04:02:31;102967.91;;;7.79;85.65
78383;BME280;67668;52.294;4.692;2024-01-25T04:04:57;102957.50;;;7.76;85.10
78383;BME280;67668;52.294;4.692;2024-01-25T04:07:22;102953.19;;;7.75;85.43
78383;BME280;67668;52.294;4.692;2024-01-25T04:09:47;102959.38;;;7.74;85.17
78383;BME280;67668;52.294;4.692;2024-01-25T04:12:12;102947.09;;;7.73;85.69
78383;BME280;67668;52.294;4.692;2024-01-25T04:14:38;102945.53;;;7.69;85.24
78383;BME280;67668;52.294;4.692;2024-01-25T04:17:03;102949.13;;;7.68;85.26
78383;BME280;67668;52.294;4.692;2024-01-25T04:19:28;102940.41;;;7.66;85.44
78383;BME280;67668;52.294;4.692;2024-01-25T04:21:53;102941.38;;;7.65;84.88
78383;BME280;67668;52.294;4.692;2024-01-25T04:24:19;102941.47;;;7.62;84.99
78383;BME280;67668;52.294;4.692;2024-01-25T04:26:44;102952.97;;;7.61;84.84
78383;BME280;67668;52.294;4.692;2024-01-25T04:29:09;102948.69;;;7.59;84.29
78383;BME280;67668;52.294;4.692;2024-01-25T04:31:35;102952.25;;;7.58;84.67
78383;BME280;67668;52.294;4.692;2024-01-25T04:34:00;102949.66;;;7.56;84.70
78383;BME280;67668;52.294;4.692;2024-01-25T04:36:25;102955.09;;;7.53;85.15
78383;BME280;67668;52.294;4.692;2024-01-25T04:38:50;102943.81;;;7.50;84.86
78383;BME280;67668;52.294;4.692;2024-01-25T04:41:16;102949.09;;;7.50;85.15
78383;BME280;67668;52.294;4.692;2024-01-25T04:43:41;102952.69;;;7.49;84.42
78383;BME280;67668;52.294;4.692;2024-01-25T04:46:06;102951.88;;;7.47;84.87
78383;BME280;67668;52.294;4.692;2024-01-25T04:48:32;102959.88;;;7.45;84.69
78383;BME280;67668;52.294;4.692;2024-01-25T04:50:57;102960.00;;;7.42;84.84
78383;BME280;67668;52.294;4.692;2024-01-25T04:53:23;102972.31;;;7.42;84.73
78383;BME280;67668;52.294;4.692;2024-01-25T04:55:49;102965.31;;;7.41;84.74
78383;BME280;67668;52.294;4.692;2024-01-25T04:58:14;102961.06;;;7.38;84.86
78383;BME280;67668;52.294;4.692;2024-01-25T05:00:39;102961.13;;;7.37;84.48
78383;BME280;67668;52.294;4.692;2024-01-25T05:03:05;102966.47;;;7.35;84.35
78383;BME280;67668;52.294;4.692;2024-01-25T05:05:31;102963.88;;;7.34;84.16
78383;BME280;67668;52.294;4.692;2024-01-25T05:07:56;102964.88;;;7.31;84.08
78383;BME280;67668;52.294;4.692;2024-01-25T05:10:21;102971.16;;;7.28;84.67
78383;BME280;67668;52.294;4.692;2024-01-25T05:12:48;102971.28;;;7.25;84.27
78383;BME280;67668;52.294;4.692;2024-01-25T05:15:13;102974.84;;;7.24;84.22
78383;BME280;67668;52.294;4.692;2024-01-25T05:17:39;102976.66;;;7.22;84.59
78383;BME280;67668;52.294;4.692;2024-01-25T05:20:05;102983.78;;;7.20;84.02
78383;BME280;67668;52.294;4.692;2024-01-25T05:22:30;102993.47;;;7.20;84.31
78383;BME280;67668;52.294;4.692;2024-01-25T05:24:55;102988.34;;;7.17;84.09
78383;BME280;67668;52.294;4.692;2024-01-25T05:27:22;102991.06;;;7.15;84.20
78383;BME280;67668;52.294;4.692;2024-01-25T05:29:48;102998.16;;;7.13;84.62
78383;BME280;67668;52.294;4.692;2024-01-25T05:32:13;102993.88;;;7.11;84.08
78383;BME280;67668;52.294;4.692;2024-01-25T05:34:38;102999.16;;;7.11;83.62
78383;BME280;67668;52.294;4.692;2024-01-25T05:37:04;103003.63;;;7.09;84.21
78383;BME280;67668;52.294;4.692;2024-01-25T05:39:29;103004.53;;;7.08;84.44
78383;BME280;67668;52.294;4.692;2024-01-25T05:41:54;102994.16;;;7.05;84.23
78383;BME280;67668;52.294;4.692;2024-01-25T05:44:20;102991.56;;;7.03;84.16
78383;BME280;67668;52.294;4.692;2024-01-25T05:46:45;102979.50;;;6.99;84.29
78383;BME280;67668;52.294;4.692;2024-01-25T05:49:10;102984.66;;;7.01;84.01
78383;BME280;67668;52.294;4.692;2024-01-25T05:51:36;102986.53;;;6.99;84.31
78383;BME280;67668;52.294;4.692;2024-01-25T05:54:01;102994.47;;;6.97;84.44
78383;BME280;67668;52.294;4.692;2024-01-25T05:56:26;102991.06;;;6.95;84.26
78383;BME280;67668;52.294;4.692;2024-01-25T05:58:52;102985.84;;;6.94;84.00
78383;BME280;67668;52.294;4.692;2024-01-25T06:01:17;102988.47;;;6.94;84.04
78383;BME280;67668;52.294;4.692;2024-01-25T06:03:42;102989.53;;;6.90;83.85
78383;BME280;67668;52.294;4.692;2024-01-25T06:06:08;102994.78;;;6.90;84.23
78383;BME280;67668;52.294;4.692;2024-01-25T06:08:33;103007.03;;;6.91;84.41
78383;BME280;67668;52.294;4.692;2024-01-25T06:10:59;103007.16;;;6.88;84.09
78383;BME280;67668;52.294;4.692;2024-01-25T06:13:25;103010.66;;;6.88;84.46
78383;BME280;67668;52.294;4.692;2024-01-25T06:15:50;103007.16;;;6.88;84.41
78383;BME280;67668;52.294;4.692;2024-01-25T06:18:15;103004.59;;;6.86;84.32
78383;BME280;67668;52.294;4.692;2024-01-25T06:20:40;103007.22;;;6.86;84.13
78383;BME280;67668;52.294;4.692;2024-01-25T06:23:06;103004.59;;;6.86;84.12
78383;BME280;67668;52.294;4.692;2024-01-25T06:25:31;103011.72;;;6.84;83.22
78383;BME280;67668;52.294;4.692;2024-01-25T06:27:57;103017.97;;;6.82;83.32
78383;BME280;67668;52.294;4.692;2024-01-25T06:30:23;103019.69;;;6.83;83.19
78383;BME280;67668;52.294;4.692;2024-01-25T06:32:48;103026.72;;;6.82;83.06
78383;BME280;67668;52.294;4.692;2024-01-25T06:35:14;103026.78;;;6.81;83.12
78383;BME280;67668;52.294;4.692;2024-01-25T06:37:39;103019.78;;;6.80;83.15
78383;BME280;67668;52.294;4.692;2024-01-25T06:40:05;103012.84;;;6.79;82.47
78383;BME280;67668;52.294;4.692;2024-01-25T06:42:30;102999.72;;;6.77;82.80
78383;BME280;67668;52.294;4.692;2024-01-25T06:44:56;102998.09;;;6.74;82.58
78383;BME280;67668;52.294;4.692;2024-01-25T06:47:21;103009.53;;;6.73;82.61
78383;BME280;67668;52.294;4.692;2024-01-25T06:49:46;103011.28;;;6.73;82.37
78383;BME280;67668;52.294;4.692;2024-01-25T06:52:16;103015.78;;;6.71;81.89
78383;BME280;67668;52.294;4.692;2024-01-25T06:54:41;103011.41;;;6.70;82.41
78383;BME280;67668;52.294;4.692;2024-01-25T06:57:06;103002.78;;;6.66;82.40
78383;BME280;67668;52.294;4.692;2024-01-25T06:59:32;102997.63;;;6.65;83.50
78383;BME280;67668;52.294;4.692;2024-01-25T07:01:57;102980.97;;;6.64;82.89
78383;BME280;67668;52.294;4.692;2024-01-25T07:04:23;102977.56;;;6.62;82.71
78383;BME280;67668;52.294;4.692;2024-01-25T07:06:48;102974.94;;;6.62;82.96
78383;BME280;67668;52.294;4.692;2024-01-25T07:09:14;102989.03;;;6.60;82.80
78383;BME280;67668;52.294;4.692;2024-01-25T07:11:40;103004.91;;;6.58;83.23
78383;BME280;67668;52.294;4.692;2024-01-25T07:14:05;103007.53;;;6.58;83.18
78383;BME280;67668;52.294;4.692;2024-01-25T07:16:31;103005.03;;;6.55;83.04
78383;BME280;67668;52.294;4.692;2024-01-25T07:18:56;103005.03;;;6.55;83.01
78383;BME280;67668;52.294;4.692;2024-01-25T07:21:22;103000.63;;;6.56;82.95
78383;BME280;67668;52.294;4.692;2024-01-25T07:23:47;103000.63;;;6.56;83.33
78383;BME280;67668;52.294;4.692;2024-01-25T07:26:17;102994.56;;;6.54;83.34
78383;BME280;67668;52.294;4.692;2024-01-25T07:28:43;102995.41;;;6.54;84.04
78383;BME280;67668;52.294;4.692;2024-01-25T07:31:08;102992.00;;;6.52;83.88
78383;BME280;67668;52.294;4.692;2024-01-25T07:33:33;102999.91;;;6.52;83.90
78383;BME280;67668;52.294;4.692;2024-01-25T07:35:58;103006.06;;;6.51;84.72
78383;BME280;67668;52.294;4.692;2024-01-25T07:38:24;103008.69;;;6.51;84.93
78383;BME280;67668;52.294;4.692;2024-01-25T07:40:49;103010.47;;;6.51;84.36
78383;BME280;67668;52.294;4.692;2024-01-25T07:43:14;103022.75;;;6.50;84.73
78383;BME280;67668;52.294;4.692;2024-01-25T07:45:40;103026.34;;;6.49;84.95
78383;BME280;67668;52.294;4.692;2024-01-25T07:48:05;103020.22;;;6.49;85.05
78383;BME280;67668;52.294;4.692;2024-01-25T07:50:31;103012.38;;;6.47;85.46
78383;BME280;67668;52.294;4.692;2024-01-25T07:52:56;103006.25;;;6.47;84.99
78383;BME280;67668;52.294;4.692;2024-01-25T07:55:21;103000.16;;;6.46;85.34
78383;BME280;67668;52.294;4.692;2024-01-25T07:57:46;102996.66;;;6.46;85.16
78383;BME280;67668;52.294;4.692;2024-01-25T08:00:12;103006.31;;;6.45;85.62
78383;BME280;67668;52.294;4.692;2024-01-25T08:02:37;103008.97;;;6.45;85.85
78383;BME280;67668;52.294;4.692;2024-01-25T08:05:07;103014.22;;;6.45;85.26
78383;BME280;67668;52.294;4.692;2024-01-25T08:07:32;103024.75;;;6.45;86.00
78383;BME280;67668;52.294;4.692;2024-01-25T08:09:58;103028.22;;;6.46;85.89
78383;BME280;67668;52.294;4.692;2024-01-25T08:12:24;103033.53;;;6.44;85.80
78383;BME280;67668;52.294;4.692;2024-01-25T08:14:50;103030.03;;;6.44;86.47
78383;BME280;67668;52.294;4.692;2024-01-25T08:17:15;103028.28;;;6.44;85.40
78383;BME280;67668;52.294;4.692;2024-01-25T08:19:40;103016.97;;;6.42;86.38
78383;BME280;67668;52.294;4.692;2024-01-25T08:22:06;103003.81;;;6.42;86.18
78383;BME280;67668;52.294;4.692;2024-01-25T08:24:31;102995.94;;;6.42;85.54
78383;BME280;67668;52.294;4.692;2024-01-25T08:26:57;102986.28;;;6.43;85.74
78383;BME280;67668;52.294;4.692;2024-01-25T08:29:22;102987.09;;;6.43;86.18
78383;BME280;67668;52.294;4.692;2024-01-25T08:31:47;102998.56;;;6.42;86.76
78383;BME280;67668;52.294;4.692;2024-01-25T08:34:13;103005.50;;;6.43;87.08
78383;BME280;67668;52.294;4.692;2024-01-25T08:36:38;103000.38;;;6.40;86.65
78383;BME280;67668;52.294;4.692;2024-01-25T08:39:03;103024.88;;;6.42;87.06
78383;BME280;67668;52.294;4.692;2024-01-25T08:41:30;103024.03;;;6.40;87.10
78383;BME280;67668;52.294;4.692;2024-01-25T08:43:55;103020.47;;;6.43;86.89
78383;BME280;67668;52.294;4.692;2024-01-25T08:46:21;103019.53;;;6.44;87.40
78383;BME280;67668;52.294;4.692;2024-01-25T08:48:46;103008.09;;;6.45;87.26
78383;BME280;67668;52.294;4.692;2024-01-25T08:51:11;103002.84;;;6.45;87.40
78383;BME280;67668;52.294;4.692;2024-01-25T08:53:37;103004.56;;;6.46;87.41
78383;BME280;67668;52.294;4.692;2024-01-25T08:56:02;103008.81;;;6.48;87.04
78383;BME280;67668;52.294;4.692;2024-01-25T08:58:29;102998.31;;;6.48;87.87
78383;BME280;67668;52.294;4.692;2024-01-25T09:00:55;103004.44;;;6.49;87.33
78383;BME280;67668;52.294;4.692;2024-01-25T09:03:20;103008.75;;;6.50;87.88
78383;BME280;67668;52.294;4.692;2024-01-25T09:05:45;103002.56;;;6.51;87.32
78383;BME280;67668;52.294;4.692;2024-01-25T09:08:12;103004.31;;;6.52;87.72
78383;BME280;67668;52.294;4.692;2024-01-25T09:10:37;102992.00;;;6.52;87.52
78383;BME280;67668;52.294;4.692;2024-01-25T09:13:03;103008.56;;;6.54;87.43
78383;BME280;67668;52.294;4.692;2024-01-25T09:15:29;103005.94;;;6.54;87.20
78383;BME280;67668;52.294;4.692;2024-01-25T09:17:54;103009.44;;;6.55;87.28
78383;BME280;67668;52.294;4.692;2024-01-25T09:20:20;102995.38;;;6.56;86.78
78383;BME280;67668;52.294;4.692;2024-01-25T09:22:45;102994.44;;;6.57;86.70
78383;BME280;67668;52.294;4.692;2024-01-25T09:25:11;102989.16;;;6.57;87.39
78383;BME280;67668;52.294;4.692;2024-01-25T09:27:36;102997.00;;;6.58;87.39
78383;BME280;67668;52.294;4.692;2024-01-25T09:30:04;102998.72;;;6.59;87.94
78383;BME280;67668;52.294;4.692;2024-01-25T09:32:30;102994.25;;;6.61;88.15
78383;BME280;67668;52.294;4.692;2024-01-25T09:34:55;102982.00;;;6.60;88.07
78383;BME280;67668;52.294;4.692;2024-01-25T09:37:20;102983.72;;;6.61;87.88
78383;BME280;67668;52.294;4.692;2024-01-25T09:39:48;102988.84;;;6.64;88.16
78383;BME280;67668;52.294;4.692;2024-01-25T09:42:13;102986.19;;;6.66;88.36
78383;BME280;67668;52.294;4.692;2024-01-25T09:44:39;103000.97;;;6.68;88.27
78383;BME280;67668;52.294;4.692;2024-01-25T09:47:05;102999.06;;;6.72;88.65
78383;BME280;67668;52.294;4.692;2024-01-25T09:49:33;102984.16;;;6.72;88.40
78383;BME280;67668;52.294;4.692;2024-01-25T09:52:01;102987.59;;;6.73;88.94
78383;BME280;67668;52.294;4.692;2024-01-25T09:54:33;102983.16;;;6.75;88.83
78383;BME280;67668;52.294;4.692;2024-01-25T09:56:59;102991.06;;;6.75;89.29
78383;BME280;67668;52.294;4.692;2024-01-25T09:59:26;102997.03;;;6.79;89.63
78383;BME280;67668;52.294;4.692;2024-01-25T10:01:51;102982.03;;;6.81;89.87
78383;BME280;67668;52.294;4.692;2024-01-25T10:04:16;102991.66;;;6.82;90.18
78383;BME280;67668;52.294;4.692;2024-01-25T10:06:44;102983.63;;;6.85;90.12
78383;BME280;67668;52.294;4.692;2024-01-25T10:09:09;102985.25;;;6.87;89.57
78383;BME280;67668;52.294;4.692;2024-01-25T10:11:35;102983.47;;;6.88;90.38
78383;BME280;67668;52.294;4.692;2024-01-25T10:14:01;102982.44;;;6.92;90.35
78383;BME280;67668;52.294;4.692;2024-01-25T10:16:26;102996.38;;;6.94;90.42
78383;BME280;67668;52.294;4.692;2024-01-25T10:18:52;102993.59;;;6.97;89.94
78383;BME280;67668;52.294;4.692;2024-01-25T10:21:18;102998.81;;;6.98;89.81
78383;BME280;67668;52.294;4.692;2024-01-25T10:23:44;102996.97;;;7.00;89.38
78383;BME280;67668;52.294;4.692;2024-01-25T10:26:11;102988.94;;;7.03;90.61
78383;BME280;67668;52.294;4.692;2024-01-25T10:28:36;102987.16;;;7.04;89.95
78383;BME280;67668;52.294;4.692;2024-01-25T10:31:02;103001.13;;;7.06;89.60
78383;BME280;67668;52.294;4.692;2024-01-25T10:33:30;103006.31;;;7.07;89.89
78383;BME280;67668;52.294;4.692;2024-01-25T10:36:00;103000.06;;;7.10;90.11
78383;BME280;67668;52.294;4.692;2024-01-25T10:38:31;102994.75;;;7.11;90.14
78383;BME280;67668;52.294;4.692;2024-01-25T10:41:00;102987.63;;;7.13;89.40
78383;BME280;67668;52.294;4.692;2024-01-25T10:43:26;103004.22;;;7.15;89.97
78383;BME280;67668;52.294;4.692;2024-01-25T10:45:52;102998.00;;;7.16;89.46
78383;BME280;67668;52.294;4.692;2024-01-25T10:48:21;102987.34;;;7.19;90.04
78383;BME280;67668;52.294;4.692;2024-01-25T10:50:46;102967.13;;;7.20;89.81
78383;BME280;67668;52.294;4.692;2024-01-25T10:53:12;102962.69;;;7.22;89.85
78383;BME280;67668;52.294;4.692;2024-01-25T10:55:37;102961.72;;;7.23;89.75
78383;BME280;67668;52.294;4.692;2024-01-25T10:58:03;102968.78;;;7.22;90.04
78383;BME280;67668;52.294;4.692;2024-01-25T11:00:31;102964.31;;;7.24;89.95
78383;BME280;67668;52.294;4.692;2024-01-25T11:02:56;102958.03;;;7.27;90.40
78383;BME280;67668;52.294;4.692;2024-01-25T11:05:23;102958.00;;;7.28;90.01
78383;BME280;67668;52.294;4.692;2024-01-25T11:07:49;102951.72;;;7.31;90.48
78383;BME280;67668;52.294;4.692;2024-01-25T11:10:17;102969.16;;;7.34;89.97
78383;BME280;67668;52.294;4.692;2024-01-25T11:12:57;102957.63;;;7.36;89.96
78383;BME280;67668;52.294;4.692;2024-01-25T11:15:33;102961.13;;;7.37;90.53
78383;BME280;67668;52.294;4.692;2024-01-25T11:18:00;102955.78;;;7.38;89.88
78383;BME280;67668;52.294;4.692;2024-01-25T11:20:28;102947.75;;;7.41;90.69
78383;BME280;67668;52.294;4.692;2024-01-25T11:23:04;102931.03;;;7.42;90.17
78383;BME280;67668;52.294;4.692;2024-01-25T11:25:30;102939.69;;;7.44;89.63
78383;BME280;67668;52.294;4.692;2024-01-25T11:27:56;102936.16;;;7.45;90.56
78383;BME280;67668;52.294;4.692;2024-01-25T11:30:22;102924.66;;;7.46;90.11
78383;BME280;67668;52.294;4.692;2024-01-25T11:32:47;102915.78;;;7.49;89.98
78383;BME280;67668;52.294;4.692;2024-01-25T11:35:13;102918.28;;;7.52;89.89
78383;BME280;67668;52.294;4.692;2024-01-25T11:37:48;102911.28;;;7.51;89.76
78383;BME280;67668;52.294;4.692;2024-01-25T11:40:15;102901.47;;;7.54;89.55
78383;BME280;67668;52.294;4.692;2024-01-25T11:42:42;102903.03;;;7.58;89.91
78383;BME280;67668;52.294;4.692;2024-01-25T11:45:09;102900.41;;;7.58;89.46
78383;BME280;67668;52.294;4.692;2024-01-25T11:47:36;102896.81;;;7.59;89.27
78383;BME280;67668;52.294;4.692;2024-01-25T11:50:02;102888.00;;;7.60;89.14
78383;BME280;67668;52.294;4.692;2024-01-25T11:52:28;102882.66;;;7.62;89.01
78383;BME280;67668;52.294;4.692;2024-01-25T11:54:53;102869.50;;;7.62;88.89
78383;BME280;67668;52.294;4.692;2024-01-25T11:57:19;102864.13;;;7.63;89.18
78383;BME280;67668;52.294;4.692;2024-01-25T11:59:45;102858.81;;;7.65;89.39
78383;BME280;67668;52.294;4.692;2024-01-25T12:02:12;102867.47;;;7.67;89.52
78383;BME280;67668;52.294;4.692;2024-01-25T12:04:39;102859.50;;;7.68;88.91
78383;BME280;67668;52.294;4.692;2024-01-25T12:07:04;102856.78;;;7.70;89.36
78383;BME280;67668;52.294;4.692;2024-01-25T12:09:30;102845.25;;;7.72;89.57
78383;BME280;67668;52.294;4.692;2024-01-25T12:11:55;102839.84;;;7.75;89.47
78383;BME280;67668;52.294;4.692;2024-01-25T12:14:20;102837.97;;;7.77;89.43
78383;BME280;67668;52.294;4.692;2024-01-25T12:16:45;102836.97;;;7.80;89.30
78383;BME280;67668;52.294;4.692;2024-01-25T12:19:11;102834.28;;;7.82;89.74
78383;BME280;67668;52.294;4.692;2024-01-25T12:21:36;102830.63;;;7.84;89.14
78383;BME280;67668;52.294;4.692;2024-01-25T12:24:02;102821.69;;;7.87;89.57
78383;BME280;67668;52.294;4.692;2024-01-25T12:26:27;102816.38;;;7.88;89.58
78383;BME280;67668;52.294;4.692;2024-01-25T12:28:53;102815.34;;;7.91;89.66
78383;BME280;67668;52.294;4.692;2024-01-25T12:31:18;102813.47;;;7.93;89.57
78383;BME280;67668;52.294;4.692;2024-01-25T12:33:43;102798.47;;;7.95;89.38
78383;BME280;67668;52.294;4.692;2024-01-25T12:36:09;102800.94;;;7.98;89.29
78383;BME280;67668;52.294;4.692;2024-01-25T12:38:34;102797.28;;;8.00;90.04
78383;BME280;67668;52.294;4.692;2024-01-25T12:41:00;102795.34;;;8.04;89.75
78383;BME280;67668;52.294;4.692;2024-01-25T12:43:25;102789.06;;;8.06;89.45
78383;BME280;67668;52.294;4.692;2024-01-25T12:45:51;102786.22;;;8.11;89.65
78383;BME280;67668;52.294;4.692;2024-01-25T12:48:17;102786.97;;;8.13;89.30
78383;BME280;67668;52.294;4.692;2024-01-25T12:50:42;102779.00;;;8.14;89.38
78383;BME280;67668;52.294;4.692;2024-01-25T12:53:10;102785.94;;;8.15;89.24